Time;durP1;ratioP1;P1;durP2;ratioP2;P2;SDS_P1;SDS_P2;PMS_P1;PMS_P2;Temp;Humidity;BMP_temperature;BMP_pressure;BME280_temperature;BME280_humidity;BME280_pressure;Samples;Min_cycle;Max_cycle;Signal;HPM_P1;HPM_P2
2023/12/09 00:00:19;;;;;;;33.75;19.02;;;;;;;;;;6237474;28;20104;-75
2023/12/09 00:03:21;;;;;;;25.00;16.60;;;;;;;;;;6197725;28;20068;-74
2023/12/09 00:06:23;;;;;;;34.38;20.70;;;;;;;;;;6239055;28;20038;-74
2023/12/09 00:09:25;;;;;;;32.10;18.02;;;;;;;;;;6212498;28;20463;-73
2023/12/09 00:12:27;;;;;;;32.78;18.23;;;;;;;;;;6218100;28;20211;-73
2023/12/09 00:15:31;;;;;;;32.05;16.88;;;;;;;;;;6223115;28;20045;-74
2023/12/09 00:18:33;;;;;;;28.38;15.75;;;;;;;;;;6223109;28;20045;-73
2023/12/09 00:21:35;;;;;;;26.63;15.05;;;;;;;;;;6231664;28;20052;-73
2023/12/09 00:24:37;;;;;;;25.80;15.63;;;;;;;;;;6192832;28;20072;-74
2023/12/09 00:27:40;;;;;;;27.73;14.52;;;;;;;;;;6234813;28;20074;-73
2023/12/09 00:30:42;;;;;;;33.83;17.02;;;;;;;;;;6235424;28;20042;-73
2023/12/09 00:33:44;;;;;;;30.63;14.55;;;;;;;;;;6231303;28;20045;-74
2023/12/09 00:36:46;;;;;;;30.90;16.17;;;;;;;;;;6204646;28;20041;-74
2023/12/09 00:39:48;;;;;;;34.15;19.52;;;;;;;;;;6238197;28;20045;-73
2023/12/09 00:42:50;;;;;;;36.55;19.45;;;;;;;;;;6230424;28;20057;-74
2023/12/09 00:45:52;;;;;;;28.73;17.38;;;;;;;;;;6232698;28;20052;-74
2023/12/09 00:48:54;;;;;;;37.30;17.40;;;;;;;;;;6244403;28;20053;-74
2023/12/09 00:51:57;;;;;;;34.42;17.85;;;;;;;;;;6237645;28;20132;-74
2023/12/09 00:55:00;;;;;;;28.20;15.90;;;;;;;;;;6234762;28;20116;-74
2023/12/09 00:58:04;;;;;;;30.00;14.75;;;;;;;;;;6218389;28;20042;-74
2023/12/09 01:01:06;;;;;;;30.40;19.10;;;;;;;;;;6223074;28;20180;-74
2023/12/09 01:04:08;;;;;;;28.33;15.75;;;;;;;;;;6214948;28;20059;-74
2023/12/09 01:07:11;;;;;;;30.35;14.77;;;;;;;;;;6237098;28;20057;-74
2023/12/09 01:10:13;;;;;;;26.08;15.45;;;;;;;;;;6205667;28;20045;-74
2023/12/09 01:13:15;;;;;;;26.23;15.57;;;;;;;;;;6236196;28;20045;-74
2023/12/09 01:16:17;;;;;;;31.17;14.20;;;;;;;;;;6228421;28;20108;-74
2023/12/09 01:19:19;;;;;;;28.65;13.43;;;;;;;;;;6219529;28;20060;-74
2023/12/09 01:22:22;;;;;;;22.55;13.80;;;;;;;;;;6199601;28;20143;-74
2023/12/09 01:25:24;;;;;;;29.02;15.05;;;;;;;;;;6224549;28;20041;-74
2023/12/09 01:28:27;;;;;;;26.85;14.13;;;;;;;;;;6210013;28;20087;-74
2023/12/09 01:31:32;;;;;;;25.25;16.05;;;;;;;;;;6238951;28;20056;-74
2023/12/09 01:34:38;;;;;;;23.42;11.48;;;;;;;;;;6223480;28;20048;-73
2023/12/09 01:37:41;;;;;;;31.67;14.20;;;;;;;;;;6229026;28;20138;-74
2023/12/09 01:40:43;;;;;;;19.55;12.15;;;;;;;;;;6219374;28;20045;-74
2023/12/09 01:43:49;;;;;;;22.23;12.57;;;;;;;;;;6223299;28;20057;-74
2023/12/09 01:46:51;;;;;;;22.80;12.00;;;;;;;;;;6218505;28;20188;-74
2023/12/09 01:49:53;;;;;;;25.75;12.50;;;;;;;;;;6220400;28;20046;-74
2023/12/09 01:52:55;;;;;;;21.67;12.27;;;;;;;;;;6226254;28;20149;-74
2023/12/09 01:55:59;;;;;;;24.23;13.13;;;;;;;;;;6227483;28;20495;-74
2023/12/09 01:59:02;;;;;;;28.92;14.88;;;;;;;;;;6231981;28;20816;-74
2023/12/09 02:02:04;;;;;;;21.48;11.95;;;;;;;;;;6246039;28;20608;-74
2023/12/09 02:05:07;;;;;;;24.88;12.30;;;;;;;;;;6228259;28;20844;-74
2023/12/09 02:08:09;;;;;;;23.23;11.30;;;;;;;;;;6226182;28;20042;-74
2023/12/09 02:11:55;;;;;;;15.63;9.82;;;;;;;;;;6212577;28;20104;-75
2023/12/09 02:15:07;;;;;;;17.35;9.05;;;;;;;;;;6218115;28;20061;-74
2023/12/09 02:18:09;;;;;;;20.27;9.55;;;;;;;;;;6236060;28;20029;-75
2023/12/09 02:21:12;;;;;;;20.30;11.32;;;;;;;;;;6233146;28;20048;-73
2023/12/09 02:24:14;;;;;;;19.48;10.43;;;;;;;;;;6233639;28;20053;-73
2023/12/09 02:27:23;;;;;;;19.98;10.23;;;;;;;;;;6235226;28;20061;-74
2023/12/09 02:30:34;;;;;;;15.18;10.05;;;;;;;;;;6266968;28;20057;-74
2023/12/09 02:34:01;;;;;;;13.55;8.77;;;;;;;;;;6233266;28;20061;-74
2023/12/09 02:37:05;;;;;;;18.77;9.85;;;;;;;;;;6242929;28;20044;-74
2023/12/09 02:40:11;;;;;;;15.70;8.93;;;;;;;;;;6231752;28;20528;-74
2023/12/09 02:43:14;;;;;;;19.25;10.98;;;;;;;;;;6235024;28;20410;-75
2023/12/09 02:46:16;;;;;;;19.00;9.43;;;;;;;;;;6246801;28;20505;-74
2023/12/09 02:49:18;;;;;;;23.33;12.85;;;;;;;;;;6231678;28;20040;-74
2023/12/09 02:52:22;;;;;;;19.67;10.65;;;;;;;;;;6231396;28;20049;-74
2023/12/09 02:55:24;;;;;;;19.98;9.27;;;;;;;;;;6254134;28;20056;-75
2023/12/09 02:58:26;;;;;;;20.45;10.88;;;;;;;;;;6246380;28;20041;-75
2023/12/09 03:01:29;;;;;;;21.00;10.45;;;;;;;;;;6259205;28;20047;-74
2023/12/09 03:04:32;;;;;;;17.45;8.20;;;;;;;;;;6259015;28;20060;-74
2023/12/09 03:07:34;;;;;;;14.82;9.38;;;;;;;;;;6247577;28;20136;-76
2023/12/09 03:10:36;;;;;;;17.60;9.18;;;;;;;;;;6227992;28;20049;-74
2023/12/09 03:13:39;;;;;;;17.50;10.05;;;;;;;;;;6235612;28;20042;-74
2023/12/09 03:16:41;;;;;;;18.30;9.15;;;;;;;;;;6229954;28;20048;-74
2023/12/09 03:19:43;;;;;;;19.70;9.85;;;;;;;;;;6221008;28;20048;-74
2023/12/09 03:22:45;;;;;;;19.88;9.02;;;;;;;;;;6215971;28;20532;-75
2023/12/09 03:25:47;;;;;;;15.05;8.18;;;;;;;;;;6233279;28;20438;-74
2023/12/09 03:28:49;;;;;;;17.25;8.20;;;;;;;;;;6211789;28;20042;-74
2023/12/09 03:31:51;;;;;;;21.83;8.88;;;;;;;;;;6244384;28;20442;-74
2023/12/09 03:34:54;;;;;;;12.40;7.78;;;;;;;;;;6240003;28;20163;-73
2023/12/09 03:37:56;;;;;;;17.17;8.82;;;;;;;;;;6241513;28;20038;-73
2023/12/09 03:40:58;;;;;;;17.30;10.35;;;;;;;;;;6237779;28;20050;-74
2023/12/09 03:44:01;;;;;;;16.73;9.45;;;;;;;;;;6237727;28;20046;-74
2023/12/09 03:47:03;;;;;;;14.82;8.98;;;;;;;;;;6219967;28;20120;-74
2023/12/09 03:50:15;;;;;;;17.60;9.70;;;;;;;;;;6220462;28;20056;-75
2023/12/09 03:53:17;;;;;;;18.88;10.05;;;;;;;;;;6217626;28;20049;-73
2023/12/09 03:56:21;;;;;;;19.10;10.30;;;;;;;;;;6232627;28;20052;-73
2023/12/09 03:59:24;;;;;;;22.27;9.63;;;;;;;;;;6203792;28;20049;-73
2023/12/09 04:02:26;;;;;;;21.17;10.85;;;;;;;;;;6227849;28;20041;-73
2023/12/09 04:05:29;;;;;;;24.35;10.65;;;;;;;;;;6214378;28;20758;-73
2023/12/09 04:08:31;;;;;;;19.23;9.75;;;;;;;;;;6238234;28;20117;-73
2023/12/09 04:11:34;;;;;;;17.67;8.18;;;;;;;;;;6209646;28;20509;-74
2023/12/09 04:14:36;;;;;;;19.77;10.45;;;;;;;;;;6224769;28;20041;-74
2023/12/09 04:17:39;;;;;;;20.25;11.27;;;;;;;;;;6205923;28;20104;-74
2023/12/09 04:20:41;;;;;;;22.27;11.50;;;;;;;;;;6222493;28;20542;-74
2023/12/09 04:23:43;;;;;;;18.95;9.45;;;;;;;;;;6224557;28;20049;-74
2023/12/09 04:26:45;;;;;;;22.25;10.70;;;;;;;;;;6201263;28;20049;-73
2023/12/09 04:29:47;;;;;;;22.92;10.90;;;;;;;;;;6215785;28;20049;-74
2023/12/09 04:32:49;;;;;;;19.95;11.75;;;;;;;;;;6203390;28;20047;-73
2023/12/09 04:35:51;;;;;;;14.98;9.18;;;;;;;;;;6183855;28;20057;-73
2023/12/09 04:38:54;;;;;;;18.10;9.90;;;;;;;;;;6225239;28;20112;-73
2023/12/09 04:41:56;;;;;;;16.67;9.82;;;;;;;;;;6195100;28;20531;-73
2023/12/09 04:44:59;;;;;;;13.75;8.55;;;;;;;;;;6205366;28;20058;-74
2023/12/09 04:48:03;;;;;;;21.80;8.80;;;;;;;;;;6212049;28;20042;-73
2023/12/09 04:51:05;;;;;;;15.63;9.00;;;;;;;;;;6184838;28;20107;-74
2023/12/09 04:54:07;;;;;;;19.05;9.50;;;;;;;;;;6215169;28;20806;-72
2023/12/09 04:57:09;;;;;;;15.57;9.73;;;;;;;;;;6212776;28;20041;-74
2023/12/09 05:00:12;;;;;;;18.20;8.65;;;;;;;;;;6191461;28;20057;-75
2023/12/09 05:03:14;;;;;;;16.30;10.63;;;;;;;;;;6218730;28;20053;-74
2023/12/09 05:06:16;;;;;;;37.70;20.63;;;;;;;;;;6175950;28;20740;-74
2023/12/09 05:09:19;;;;;;;18.45;10.50;;;;;;;;;;6198054;28;20034;-75
2023/12/09 05:12:21;;;;;;;19.00;9.82;;;;;;;;;;6218559;28;20046;-75
2023/12/09 05:15:23;;;;;;;18.13;9.57;;;;;;;;;;6235241;28;20154;-75
2023/12/09 05:18:26;;;;;;;17.27;9.30;;;;;;;;;;6227943;28;20052;-73
2023/12/09 05:21:28;;;;;;;20.33;8.95;;;;;;;;;;6228571;28;20048;-75
2023/12/09 05:24:37;;;;;;;20.35;9.32;;;;;;;;;;6236293;28;20049;-73
2023/12/09 05:27:40;;;;;;;15.55;8.95;;;;;;;;;;6234502;28;20044;-74
2023/12/09 05:30:43;;;;;;;18.83;9.80;;;;;;;;;;6221730;28;20136;-74
2023/12/09 05:33:45;;;;;;;17.25;10.43;;;;;;;;;;6236663;28;20045;-74
2023/12/09 05:36:47;;;;;;;14.80;9.02;;;;;;;;;;6223408;28;20061;-74
2023/12/09 05:39:49;;;;;;;15.48;8.98;;;;;;;;;;6218108;28;20053;-73
2023/12/09 05:42:52;;;;;;;22.63;10.18;;;;;;;;;;6233359;28;20769;-73
2023/12/09 05:45:54;;;;;;;20.80;11.07;;;;;;;;;;6218665;28;20046;-73
2023/12/09 05:48:56;;;;;;;18.27;11.40;;;;;;;;;;6238489;28;20044;-72
2023/12/09 05:51:59;;;;;;;19.55;10.68;;;;;;;;;;6197896;28;20053;-73
2023/12/09 05:55:01;;;;;;;25.42;11.85;;;;;;;;;;6232397;28;20052;-74
2023/12/09 05:58:05;;;;;;;17.45;9.48;;;;;;;;;;6211254;28;20037;-75
2023/12/09 06:01:07;;;;;;;19.27;11.30;;;;;;;;;;6230176;28;20053;-74
2023/12/09 06:04:11;;;;;;;19.88;10.50;;;;;;;;;;6234884;28;20192;-76
2023/12/09 06:07:14;;;;;;;19.85;10.02;;;;;;;;;;6210756;28;20199;-75
2023/12/09 06:10:16;;;;;;;21.95;13.45;;;;;;;;;;6182203;28;20419;-75
2023/12/09 06:13:18;;;;;;;23.83;16.13;;;;;;;;;;6209073;28;20053;-75
2023/12/09 06:16:20;;;;;;;24.42;15.05;;;;;;;;;;6213737;28;20054;-75
2023/12/09 06:19:24;;;;;;;27.00;17.45;;;;;;;;;;6215863;28;20064;-75
2023/12/09 06:22:26;;;;;;;24.70;15.38;;;;;;;;;;6234987;28;20049;-76
2023/12/09 06:25:30;;;;;;;30.60;17.98;;;;;;;;;;6185162;28;20053;-76
2023/12/09 06:28:32;;;;;;;51.08;24.45;;;;;;;;;;6234456;28;20878;-75
2023/12/09 06:31:37;;;;;;;38.28;25.73;;;;;;;;;;6216171;28;20203;-76
2023/12/09 06:34:40;;;;;;;73.70;35.47;;;;;;;;;;6213124;28;20038;-76
2023/12/09 06:37:44;;;;;;;58.22;28.65;;;;;;;;;;6212189;28;20057;-76
2023/12/09 06:40:46;;;;;;;41.22;22.73;;;;;;;;;;6215151;28;20049;-75
2023/12/09 06:43:49;;;;;;;28.08;15.82;;;;;;;;;;6219306;28;20531;-75
2023/12/09 06:46:51;;;;;;;25.58;13.95;;;;;;;;;;6195295;28;20134;-76
2023/12/09 06:49:53;;;;;;;26.88;14.32;;;;;;;;;;6210622;28;20053;-74
2023/12/09 06:52:55;;;;;;;29.90;16.45;;;;;;;;;;6233958;28;20037;-76
2023/12/09 06:55:57;;;;;;;26.73;16.15;;;;;;;;;;6213568;28;20609;-77
2023/12/09 06:59:01;;;;;;;27.23;14.70;;;;;;;;;;6193429;28;20046;-76
2023/12/09 07:02:05;;;;;;;29.63;12.18;;;;;;;;;;6228513;28;20053;-76
2023/12/09 07:05:12;;;;;;;28.08;15.15;;;;;;;;;;6219531;28;20107;-75
2023/12/09 07:08:14;;;;;;;32.53;18.00;;;;;;;;;;6190878;28;20179;-75
2023/12/09 07:11:20;;;;;;;25.73;13.68;;;;;;;;;;6216181;28;20790;-76
2023/12/09 07:14:22;;;;;;;33.72;18.10;;;;;;;;;;6197646;28;20053;-76
2023/12/09 07:17:26;;;;;;;34.40;16.83;;;;;;;;;;6193540;28;20451;-77
2023/12/09 07:20:29;;;;;;;44.65;19.67;;;;;;;;;;6201346;28;20103;-77
2023/12/09 07:23:31;;;;;;;41.20;17.83;;;;;;;;;;6218153;28;20045;-76
2023/12/09 07:26:34;;;;;;;38.28;16.63;;;;;;;;;;6230541;28;20064;-76
2023/12/09 07:29:40;;;;;;;59.17;27.15;;;;;;;;;;6217799;28;20050;-78
2023/12/09 07:32:42;;;;;;;30.08;17.42;;;;;;;;;;6235346;28;20041;-77
2023/12/09 07:35:46;;;;;;;22.83;13.38;;;;;;;;;;6216721;28;20124;-77
2023/12/09 07:38:48;;;;;;;23.73;13.18;;;;;;;;;;6205647;28;20049;-74
2023/12/09 07:41:51;;;;;;;20.17;13.00;;;;;;;;;;6231947;28;20050;-77
2023/12/09 07:44:53;;;;;;;19.83;11.20;;;;;;;;;;6212022;28;20064;-77
2023/12/09 07:47:55;;;;;;;21.00;11.80;;;;;;;;;;6200926;28;20179;-77
2023/12/09 07:50:58;;;;;;;20.80;13.88;;;;;;;;;;6216732;28;20438;-76
2023/12/09 07:54:01;;;;;;;25.40;16.25;;;;;;;;;;6216638;28;20834;-77
2023/12/09 07:57:03;;;;;;;28.98;13.50;;;;;;;;;;6240707;28;20461;-78
2023/12/09 08:00:07;;;;;;;19.65;11.82;;;;;;;;;;6235866;28;20052;-77
2023/12/09 08:03:09;;;;;;;19.40;12.05;;;;;;;;;;6250206;28;20049;-76
2023/12/09 08:06:14;;;;;;;22.05;12.60;;;;;;;;;;6218553;28;20038;-74
2023/12/09 08:09:16;;;;;;;27.88;16.38;;;;;;;;;;6198765;28;20629;-76
2023/12/09 08:12:18;;;;;;;23.52;12.43;;;;;;;;;;6230863;28;20068;-74
2023/12/09 08:15:21;;;;;;;30.05;14.95;;;;;;;;;;6220361;28;20536;-74
2023/12/09 08:18:23;;;;;;;29.40;16.02;;;;;;;;;;6233335;28;20545;-75
2023/12/09 08:21:26;;;;;;;27.92;16.75;;;;;;;;;;6210156;28;20050;-74
2023/12/09 08:24:28;;;;;;;24.55;13.82;;;;;;;;;;6230221;28;20058;-77
2023/12/09 08:27:32;;;;;;;31.30;14.88;;;;;;;;;;6219808;28;20057;-77
2023/12/09 08:30:35;;;;;;;25.08;13.32;;;;;;;;;;6211514;28;20054;-74
2023/12/09 08:33:39;;;;;;;20.88;12.38;;;;;;;;;;6217852;28;20375;-75
2023/12/09 08:36:41;;;;;;;22.10;13.23;;;;;;;;;;6199434;28;20041;-74
2023/12/09 08:39:45;;;;;;;23.02;13.23;;;;;;;;;;6217599;28;20058;-75
2023/12/09 08:42:50;;;;;;;25.52;13.13;;;;;;;;;;6212264;28;20065;-75
2023/12/09 08:45:52;;;;;;;23.08;12.15;;;;;;;;;;6205727;28;20056;-75
2023/12/09 08:48:54;;;;;;;26.60;16.02;;;;;;;;;;6210852;28;20041;-74
2023/12/09 08:51:58;;;;;;;27.02;15.75;;;;;;;;;;6227911;28;20537;-75
2023/12/09 08:55:01;;;;;;;28.00;16.88;;;;;;;;;;6209686;28;20770;-74
2023/12/09 08:58:04;;;;;;;33.78;18.77;;;;;;;;;;6204641;28;20546;-74
2023/12/09 09:01:06;;;;;;;32.17;18.05;;;;;;;;;;6196662;28;20309;-78
2023/12/09 09:04:10;;;;;;;32.15;19.50;;;;;;;;;;6212990;28;20538;-75
2023/12/09 09:07:13;;;;;;;220.88;92.93;;;;;;;;;;6211938;28;20161;-75
2023/12/09 09:10:15;;;;;;;35.75;18.38;;;;;;;;;;6212059;28;20522;-72
2023/12/09 09:13:17;;;;;;;28.20;16.30;;;;;;;;;;6207055;28;20050;-73
2023/12/09 09:16:19;;;;;;;26.90;15.63;;;;;;;;;;6227333;28;20041;-73
2023/12/09 09:19:21;;;;;;;22.55;14.18;;;;;;;;;;6230157;28;20041;-72
2023/12/09 09:22:24;;;;;;;30.23;16.33;;;;;;;;;;6233591;28;20556;-73
2023/12/09 09:25:26;;;;;;;22.38;13.27;;;;;;;;;;6230081;28;20742;-74
2023/12/09 09:28:28;;;;;;;17.08;11.20;;;;;;;;;;6211451;28;20052;-73
2023/12/09 09:31:31;;;;;;;18.25;10.43;;;;;;;;;;6234312;28;20558;-71
2023/12/09 09:34:32;;;;;;;31.75;15.63;;;;;;;;;;6212841;28;20072;-71
2023/12/09 09:37:35;;;;;;;20.67;12.50;;;;;;;;;;6230113;28;20049;-73
2023/12/09 09:40:39;;;;;;;24.58;13.40;;;;;;;;;;6229976;28;20053;-72
2023/12/09 09:43:46;;;;;;;25.83;15.32;;;;;;;;;;6213662;28;20079;-73
2023/12/09 09:46:51;;;;;;;22.73;13.43;;;;;;;;;;6209862;28;20045;-72
2023/12/09 09:49:55;;;;;;;18.15;10.27;;;;;;;;;;6217162;28;20050;-72
2023/12/09 09:52:58;;;;;;;52.58;29.73;;;;;;;;;;6195079;28;20128;-72
2023/12/09 09:56:01;;;;;;;19.20;12.18;;;;;;;;;;6198995;28;20049;-72
2023/12/09 09:59:03;;;;;;;24.88;13.45;;;;;;;;;;6214101;28;20110;-72
2023/12/09 10:02:07;;;;;;;9.90;7.72;;;;;;;;;;6231697;28;20076;-73
2023/12/09 10:05:10;;;;;;;20.50;11.57;;;;;;;;;;6229574;28;20042;-73
2023/12/09 10:08:12;;;;;;;20.17;10.20;;;;;;;;;;6212303;28;20758;-72
2023/12/09 10:11:14;;;;;;;19.67;10.57;;;;;;;;;;6231433;28;20056;-72
2023/12/09 10:14:17;;;;;;;21.85;12.20;;;;;;;;;;6215958;28;20045;-72
2023/12/09 10:17:21;;;;;;;18.50;9.05;;;;;;;;;;6224579;28;20049;-73
2023/12/09 10:20:23;;;;;;;23.52;13.27;;;;;;;;;;6216491;28;20049;-73
2023/12/09 10:23:25;;;;;;;24.75;14.18;;;;;;;;;;6225668;28;20120;-72
2023/12/09 10:26:27;;;;;;;23.60;11.57;;;;;;;;;;6230287;28;20640;-74
2023/12/09 10:29:29;;;;;;;24.02;14.73;;;;;;;;;;6189053;28;20720;-74
2023/12/09 10:32:33;;;;;;;21.00;11.95;;;;;;;;;;6229900;28;20414;-74
2023/12/09 10:35:35;;;;;;;18.55;9.18;;;;;;;;;;6212910;28;20597;-74
2023/12/09 10:38:45;;;;;;;25.25;14.15;;;;;;;;;;6207198;28;20056;-75
2023/12/09 10:42:04;;;;;;;22.10;12.00;;;;;;;;;;6214097;28;20045;-74
2023/12/09 10:45:11;;;;;;;19.92;11.40;;;;;;;;;;6225879;28;20103;-74
2023/12/09 10:48:14;;;;;;;19.08;9.52;;;;;;;;;;6213118;28;20080;-74
2023/12/09 10:51:18;;;;;;;14.75;8.88;;;;;;;;;;6195167;28;20037;-74
2023/12/09 10:54:21;;;;;;;11.38;7.07;;;;;;;;;;6209881;28;20050;-73
2023/12/09 10:57:24;;;;;;;16.10;10.73;;;;;;;;;;6214111;28;20175;-74
2023/12/09 11:00:30;;;;;;;12.98;7.15;;;;;;;;;;6195784;28;20523;-74
2023/12/09 11:03:33;;;;;;;16.08;9.18;;;;;;;;;;6229149;28;20846;-74
2023/12/09 11:06:37;;;;;;;16.38;11.15;;;;;;;;;;6214860;28;20064;-72
2023/12/09 11:09:40;;;;;;;16.02;9.43;;;;;;;;;;6199912;28;20057;-72
2023/12/09 11:12:44;;;;;;;73.32;35.13;;;;;;;;;;6193415;28;20065;-72
2023/12/09 11:15:47;;;;;;;18.73;10.50;;;;;;;;;;6224706;28;20053;-72
2023/12/09 11:18:54;;;;;;;22.20;13.43;;;;;;;;;;6184147;28;20061;-73
2023/12/09 11:21:56;;;;;;;14.05;7.40;;;;;;;;;;6196474;28;20143;-74
2023/12/09 11:24:58;;;;;;;12.55;7.82;;;;;;;;;;6206711;28;20049;-74
2023/12/09 11:28:03;;;;;;;14.43;8.77;;;;;;;;;;6191105;28;20099;-73
2023/12/09 11:31:06;;;;;;;13.20;7.68;;;;;;;;;;6156280;28;20042;-73
2023/12/09 11:34:19;;;;;;;9.55;5.97;;;;;;;;;;6208108;28;20041;-73
2023/12/09 11:37:22;;;;;;;20.42;13.38;;;;;;;;;;6181260;28;20200;-74
2023/12/09 11:40:27;;;;;;;9.80;5.88;;;;;;;;;;6176639;28;20042;-74
2023/12/09 11:43:29;;;;;;;11.23;6.85;;;;;;;;;;6191499;28;20049;-74
2023/12/09 11:46:34;;;;;;;8.32;4.57;;;;;;;;;;6195564;28;20124;-74
2023/12/09 11:49:37;;;;;;;12.43;8.82;;;;;;;;;;6206298;28;20545;-73
2023/12/09 11:52:42;;;;;;;12.70;8.35;;;;;;;;;;6202768;28;20053;-74
2023/12/09 11:55:45;;;;;;;10.68;6.78;;;;;;;;;;6192237;28;20054;-73
2023/12/09 11:58:47;;;;;;;11.48;8.13;;;;;;;;;;6224337;28;20045;-73
2023/12/09 12:01:49;;;;;;;9.88;5.38;;;;;;;;;;6189143;28;20919;-73
2023/12/09 12:04:53;;;;;;;28.38;15.98;;;;;;;;;;6210868;28;20968;-73
2023/12/09 12:07:55;;;;;;;20.10;13.27;;;;;;;;;;6182539;28;20046;-74
2023/12/09 12:10:57;;;;;;;12.68;10.32;;;;;;;;;;6195651;28;20038;-74
2023/12/09 12:14:00;;;;;;;24.00;9.13;;;;;;;;;;6222323;28;20049;-74
2023/12/09 12:17:03;;;;;;;15.27;9.38;;;;;;;;;;6234618;28;20042;-74
2023/12/09 12:20:10;;;;;;;37.75;18.60;;;;;;;;;;6195438;28;20037;-75
2023/12/09 12:23:13;;;;;;;7.65;5.18;;;;;;;;;;6217190;28;20581;-74
2023/12/09 12:26:27;;;;;;;20.38;9.10;;;;;;;;;;6219181;28;20037;-74
2023/12/09 12:29:29;;;;;;;13.70;7.50;;;;;;;;;;6232424;28;20628;-74
2023/12/09 12:32:35;;;;;;;12.40;7.57;;;;;;;;;;6228248;28;20037;-74
2023/12/09 12:35:38;;;;;;;10.20;6.20;;;;;;;;;;6181836;28;20072;-75
2023/12/09 12:38:40;;;;;;;9.98;6.47;;;;;;;;;;6201963;28;20171;-74
2023/12/09 12:41:42;;;;;;;9.73;6.07;;;;;;;;;;6212108;28;20041;-74
2023/12/09 12:44:44;;;;;;;11.35;6.53;;;;;;;;;;6215543;28;20110;-74
2023/12/09 12:47:47;;;;;;;12.73;8.00;;;;;;;;;;6232088;28;20041;-73
2023/12/09 12:50:50;;;;;;;9.77;6.20;;;;;;;;;;6198166;28;20057;-73
2023/12/09 12:53:53;;;;;;;8.15;5.25;;;;;;;;;;6215156;28;20628;-74
2023/12/09 12:56:55;;;;;;;10.45;6.22;;;;;;;;;;6232693;28;20048;-74
2023/12/09 12:59:57;;;;;;;12.93;8.32;;;;;;;;;;6231447;28;20072;-74
2023/12/09 13:03:08;;;;;;;7.72;4.95;;;;;;;;;;6215313;28;20501;-73
2023/12/09 13:06:13;;;;;;;13.32;5.78;;;;;;;;;;6233771;28;20788;-74
2023/12/09 13:09:15;;;;;;;7.82;5.63;;;;;;;;;;6200364;28;20049;-74
2023/12/09 13:12:18;;;;;;;7.43;5.10;;;;;;;;;;6228686;28;20042;-73
2023/12/09 13:15:21;;;;;;;16.45;10.65;;;;;;;;;;6164444;28;20058;-75
2023/12/09 13:18:23;;;;;;;10.70;6.38;;;;;;;;;;6186511;28;20140;-72
2023/12/09 13:21:26;;;;;;;12.82;9.45;;;;;;;;;;6181960;28;20034;-73
2023/12/09 13:24:28;;;;;;;11.05;7.68;;;;;;;;;;6159700;28;20041;-73
2023/12/09 13:27:34;;;;;;;19.13;10.50;;;;;;;;;;6210919;28;20053;-74
2023/12/09 13:30:36;;;;;;;7.75;5.50;;;;;;;;;;6210362;28;20859;-74
2023/12/09 13:33:38;;;;;;;9.02;6.05;;;;;;;;;;6172280;28;20046;-75
2023/12/09 13:36:41;;;;;;;8.70;4.90;;;;;;;;;;6211098;28;20050;-74
2023/12/09 13:39:43;;;;;;;9.57;5.22;;;;;;;;;;6190041;28;20271;-74
2023/12/09 13:42:45;;;;;;;7.88;4.55;;;;;;;;;;6202913;28;20486;-74
2023/12/09 13:45:48;;;;;;;10.20;6.30;;;;;;;;;;6204665;28;20518;-73
2023/12/09 13:48:50;;;;;;;11.35;8.15;;;;;;;;;;6190635;28;20068;-73
2023/12/09 13:51:52;;;;;;;12.45;7.88;;;;;;;;;;6210222;28;20046;-73
2023/12/09 13:54:55;;;;;;;15.35;11.40;;;;;;;;;;6202467;28;20046;-72
2023/12/09 13:57:57;;;;;;;9.13;5.65;;;;;;;;;;6173136;28;20901;-73
2023/12/09 14:01:00;;;;;;;9.40;7.57;;;;;;;;;;6173717;28;20616;-73
2023/12/09 14:04:05;;;;;;;22.08;13.00;;;;;;;;;;6188895;28;20438;-74
2023/12/09 14:07:07;;;;;;;9.00;4.85;;;;;;;;;;6206266;28;20450;-73
2023/12/09 14:10:09;;;;;;;11.82;6.85;;;;;;;;;;6207739;28;20045;-73
2023/12/09 14:13:11;;;;;;;12.10;7.93;;;;;;;;;;6213097;28;20829;-72
2023/12/09 14:16:13;;;;;;;25.45;13.57;;;;;;;;;;6174796;28;20896;-72
2023/12/09 14:19:16;;;;;;;15.48;8.48;;;;;;;;;;6192274;28;20132;-72
2023/12/09 14:22:18;;;;;;;14.25;7.40;;;;;;;;;;6176014;28;20184;-72
2023/12/09 14:25:20;;;;;;;22.92;11.15;;;;;;;;;;6216277;28;20542;-73
2023/12/09 14:28:22;;;;;;;11.40;7.90;;;;;;;;;;6211023;28;20056;-74
2023/12/09 14:31:25;;;;;;;7.35;5.63;;;;;;;;;;6207628;28;20042;-74
2023/12/09 14:34:27;;;;;;;14.35;9.02;;;;;;;;;;6193109;28;20049;-75
2023/12/09 14:37:30;;;;;;;16.85;11.18;;;;;;;;;;6195145;28;20046;-74
2023/12/09 14:40:36;;;;;;;7.30;4.45;;;;;;;;;;6175639;28;20051;-73
2023/12/09 14:43:39;;;;;;;8.63;5.05;;;;;;;;;;6208311;28;20079;-72
2023/12/09 14:46:41;;;;;;;9.75;4.55;;;;;;;;;;6191952;28;20200;-72
2023/12/09 14:49:43;;;;;;;8.35;6.22;;;;;;;;;;6188303;28;20038;-73
2023/12/09 14:52:45;;;;;;;9.70;6.53;;;;;;;;;;6169056;28;20045;-72
2023/12/09 14:55:48;;;;;;;8.15;6.25;;;;;;;;;;6192770;28;20050;-71
2023/12/09 14:58:50;;;;;;;11.35;8.80;;;;;;;;;;6196695;28;20168;-71
2023/12/09 15:01:52;;;;;;;10.50;6.82;;;;;;;;;;6188320;28;20842;-72
2023/12/09 15:04:56;;;;;;;9.27;5.20;;;;;;;;;;6207182;28;20556;-72
2023/12/09 15:07:58;;;;;;;6.85;4.15;;;;;;;;;;6169834;28;20046;-73
2023/12/09 15:11:00;;;;;;;9.52;5.95;;;;;;;;;;6188751;28;20187;-73
2023/12/09 15:14:02;;;;;;;10.82;7.47;;;;;;;;;;6213841;28;20057;-73
2023/12/09 15:17:05;;;;;;;8.93;6.00;;;;;;;;;;6207797;28;20682;-72
2023/12/09 15:20:12;;;;;;;8.02;5.38;;;;;;;;;;6196554;28;20041;-73
2023/12/09 15:23:14;;;;;;;8.25;5.35;;;;;;;;;;6224657;28;20049;-73
2023/12/09 15:26:16;;;;;;;12.02;7.60;;;;;;;;;;6230969;28;20053;-72
2023/12/09 15:29:19;;;;;;;9.05;5.82;;;;;;;;;;6213747;28;20371;-73
2023/12/09 15:32:21;;;;;;;11.20;6.15;;;;;;;;;;6217582;28;20099;-73
2023/12/09 15:35:23;;;;;;;19.00;11.38;;;;;;;;;;6229530;28;20049;-73
2023/12/09 15:38:26;;;;;;;11.70;6.72;;;;;;;;;;6201018;28;20102;-73
2023/12/09 15:41:28;;;;;;;9.57;6.05;;;;;;;;;;6231977;28;20049;-73
2023/12/09 15:44:31;;;;;;;37.03;20.05;;;;;;;;;;6232775;28;20076;-73
2023/12/09 15:47:33;;;;;;;22.55;12.32;;;;;;;;;;6232320;28;20060;-74
2023/12/09 15:50:35;;;;;;;18.27;11.93;;;;;;;;;;6199615;28;20646;-73
2023/12/09 15:53:39;;;;;;;24.92;14.05;;;;;;;;;;6234918;28;20847;-75
2023/12/09 15:56:41;;;;;;;27.58;14.88;;;;;;;;;;6230923;28;20134;-73
2023/12/09 15:59:46;;;;;;;30.20;19.33;;;;;;;;;;6206482;28;20045;-73
2023/12/09 16:02:50;;;;;;;19.33;10.25;;;;;;;;;;6231889;28;20049;-73
2023/12/09 16:05:55;;;;;;;13.65;9.13;;;;;;;;;;6216535;28;20777;-72
2023/12/09 16:08:57;;;;;;;9.70;5.80;;;;;;;;;;6213156;28;20045;-73
2023/12/09 16:12:00;;;;;;;12.43;8.73;;;;;;;;;;6216352;28;20041;-74
2023/12/09 16:15:02;;;;;;;31.02;14.18;;;;;;;;;;6212568;28;20048;-73
2023/12/09 16:18:06;;;;;;;28.17;13.82;;;;;;;;;;6211553;28;20053;-75
2023/12/09 16:21:09;;;;;;;32.83;13.80;;;;;;;;;;6211242;28;20046;-76
2023/12/09 16:24:12;;;;;;;39.70;15.98;;;;;;;;;;6209753;28;20058;-74
2023/12/09 16:27:15;;;;;;;20.58;11.10;;;;;;;;;;6212759;28;20052;-73
2023/12/09 16:30:17;;;;;;;21.15;10.00;;;;;;;;;;6222388;28;20042;-73
2023/12/09 16:33:20;;;;;;;13.95;6.85;;;;;;;;;;6214216;28;20458;-74
2023/12/09 16:36:22;;;;;;;18.05;8.15;;;;;;;;;;6224705;28;20111;-73
2023/12/09 16:39:25;;;;;;;20.85;9.48;;;;;;;;;;6217981;28;20053;-73
2023/12/09 16:42:27;;;;;;;14.55;7.65;;;;;;;;;;6206460;28;20049;-73
2023/12/09 16:45:29;;;;;;;15.00;9.20;;;;;;;;;;6218048;28;20041;-73
2023/12/09 16:48:31;;;;;;;17.73;8.20;;;;;;;;;;6199323;28;20120;-73
2023/12/09 16:51:34;;;;;;;10.07;6.65;;;;;;;;;;6211897;28;20099;-73
2023/12/09 16:54:36;;;;;;;9.43;5.25;;;;;;;;;;6211048;28;20527;-73
2023/12/09 16:57:38;;;;;;;11.00;6.30;;;;;;;;;;6213821;28;20057;-72
2023/12/09 17:00:41;;;;;;;12.20;6.82;;;;;;;;;;6179056;28;20041;-73
2023/12/09 17:03:43;;;;;;;13.52;8.65;;;;;;;;;;6215964;28;20540;-74
2023/12/09 17:06:51;;;;;;;13.65;8.65;;;;;;;;;;6194417;28;20053;-75
2023/12/09 17:09:54;;;;;;;10.43;6.85;;;;;;;;;;6214791;28;20057;-77
2023/12/09 17:12:57;;;;;;;7.85;5.32;;;;;;;;;;6213878;28;20543;-77
2023/12/09 17:16:00;;;;;;;9.82;5.95;;;;;;;;;;6188398;28;20454;-77
2023/12/09 17:19:05;;;;;;;7.45;4.57;;;;;;;;;;6208765;28;20038;-75
2023/12/09 17:22:07;;;;;;;12.50;7.68;;;;;;;;;;6179312;28;20422;-75
2023/12/09 17:25:10;;;;;;;12.35;6.65;;;;;;;;;;6221841;28;20056;-76
2023/12/09 17:28:12;;;;;;;10.13;6.18;;;;;;;;;;6197040;28;20049;-76
2023/12/09 17:31:15;;;;;;;8.13;5.78;;;;;;;;;;6194806;28;20048;-75
2023/12/09 17:34:17;;;;;;;12.68;8.32;;;;;;;;;;6188779;28;20434;-75
2023/12/09 17:37:19;;;;;;;11.32;7.90;;;;;;;;;;6220787;28;20624;-76
2023/12/09 17:40:21;;;;;;;7.80;4.25;;;;;;;;;;6203257;28;20488;-76
2023/12/09 17:43:23;;;;;;;10.23;6.25;;;;;;;;;;6208978;28;20080;-78
2023/12/09 17:46:26;;;;;;;8.70;5.78;;;;;;;;;;6203138;28;20156;-73
2023/12/09 17:49:28;;;;;;;9.95;6.00;;;;;;;;;;6186490;28;20046;-75
2023/12/09 17:52:31;;;;;;;9.13;5.32;;;;;;;;;;6208992;28;20038;-77